Time;durP1;ratioP1;P1;durP2;ratioP2;P2;SDS_P1;SDS_P2;PMS_P1;PMS_P2;Temp;Humidity;BMP_temperature;BMP_pressure;BME280_temperature;BME280_humidity;BME280_pressure;Samples;Min_cycle;Max_cycle;Signal;HPM_P1;HPM_P2
2023/12/29 00:00:57;;;;;;;12.17;8.37;;;7.40;99.90;;;;;;10469004;28;20226;-79
2023/12/29 00:06:02;;;;;;;11.33;7.47;;;7.20;99.90;;;;;;10494578;28;20246;-80
2023/12/29 00:11:05;;;;;;;15.33;8.43;;;6.90;99.90;;;;;;10495383;28;20233;-80
2023/12/29 00:16:07;;;;;;;11.43;6.70;;;7.00;99.90;;;;;;10456207;28;20239;-80
2023/12/29 00:21:10;;;;;;;13.07;7.53;;;7.10;99.90;;;;;;10482322;28;20774;-80
2023/12/29 00:26:13;;;;;;;10.20;6.70;;;6.70;99.90;;;;;;10494614;28;20270;-80
2023/12/29 00:31:15;;;;;;;16.40;7.80;;;6.50;99.90;;;;;;10473115;28;20204;-80
2023/12/29 00:36:19;;;;;;;13.57;6.40;;;6.80;99.90;;;;;;10446193;28;20230;-80
2023/12/29 00:41:22;;;;;;;9.37;6.20;;;6.70;99.90;;;;;;10477069;28;20230;-80
2023/12/29 00:46:24;;;;;;;10.83;7.70;;;7.20;99.90;;;;;;10492713;28;20284;-80
2023/12/29 00:51:27;;;;;;;13.17;7.10;;;7.00;99.90;;;;;;10493148;28;20283;-80
2023/12/29 00:56:29;;;;;;;13.40;7.37;;;6.80;99.90;;;;;;10491992;28;20291;-80
2023/12/29 01:01:35;;;;;;;9.30;6.17;;;6.60;99.90;;;;;;10452061;28;20280;-80
2023/12/29 01:06:38;;;;;;;9.47;6.43;;;6.50;99.90;;;;;;10437113;28;20283;-79
2023/12/29 01:11:40;;;;;;;10.20;6.17;;;6.60;99.90;;;;;;10418622;28;20301;-80
2023/12/29 01:16:43;;;;;;;8.80;6.27;;;6.80;99.90;;;;;;10452156;28;20788;-80
2023/12/29 01:21:45;;;;;;;10.73;6.40;;;7.00;99.90;;;;;;10450005;28;20303;-80
2023/12/29 01:26:48;;;;;;;11.93;6.23;;;7.40;99.90;;;;;;10449016;28;20258;-79
2023/12/29 01:31:50;;;;;;;12.50;6.77;;;7.70;99.90;;;;;;10443890;28;20230;-80
2023/12/29 01:36:53;;;;;;;8.27;6.50;;;7.80;99.90;;;;;;10479027;28;20266;-80
2023/12/29 01:41:56;;;;;;;6.87;5.17;;;7.70;99.90;;;;;;10447716;28;20203;-80
2023/12/29 01:47:00;;;;;;;10.27;6.80;;;8.00;99.90;;;;;;10448476;28;20307;-80
2023/12/29 01:52:03;;;;;;;11.27;6.07;;;7.90;99.90;;;;;;10449945;28;20222;-79
2023/12/29 01:57:08;;;;;;;7.47;5.37;;;7.70;99.90;;;;;;10461319;28;20229;-80
2023/12/29 02:02:12;;;;;;;6.07;4.67;;;8.50;99.90;;;;;;10448275;28;20599;-79
2023/12/29 02:07:15;;;;;;;9.87;5.30;;;8.50;99.90;;;;;;10445024;28;20651;-80
2023/12/29 02:12:18;;;;;;;4.93;4.53;;;9.00;99.90;;;;;;10447104;28;20625;-80
2023/12/29 02:17:27;;;;;;;7.30;4.00;;;9.40;99.90;;;;;;10447236;28;20806;-80
2023/12/29 02:22:30;;;;;;;5.10;3.27;;;9.80;99.90;;;;;;10449346;28;20275;-80
2023/12/29 02:27:46;;;;;;;8.47;5.30;;;10.10;99.90;;;;;;10447537;28;20258;-80
2023/12/29 02:32:50;;;;;;;7.30;4.60;;;9.70;99.90;;;;;;10445879;28;20679;-80
2023/12/29 02:37:55;;;;;;;5.73;4.20;;;9.80;99.90;;;;;;10430064;28;20663;-80
2023/12/29 02:42:58;;;;;;;5.30;3.63;;;10.50;99.90;;;;;;10426305;28;20617;-79
2023/12/29 02:48:01;;;;;;;5.20;3.80;;;10.10;99.90;;;;;;10489376;28;20322;-79
2023/12/29 02:53:04;;;;;;;5.67;3.97;;;10.60;99.90;;;;;;10424805;28;20231;-79
2023/12/29 02:58:07;;;;;;;6.50;3.97;;;10.90;99.90;;;;;;10415877;28;20230;-79
2023/12/29 03:03:09;;;;;;;5.13;3.70;;;11.20;99.90;;;;;;10460393;28;20752;-79
2023/12/29 03:08:12;;;;;;;5.80;3.37;;;10.80;99.90;;;;;;10447012;28;20255;-79
2023/12/29 03:13:14;;;;;;;5.80;3.53;;;11.00;99.90;;;;;;10436120;28;20663;-79
2023/12/29 03:18:17;;;;;;;3.67;3.10;;;11.00;99.90;;;;;;10447844;28;20273;-79
2023/12/29 03:23:20;;;;;;;4.83;3.57;;;11.00;99.90;;;;;;10448768;28;20254;-79
2023/12/29 03:28:22;;;;;;;5.40;2.90;;;10.80;99.90;;;;;;10423810;28;20259;-79
2023/12/29 03:33:25;;;;;;;7.27;3.03;;;10.80;99.90;;;;;;10411042;28;20747;-79
2023/12/29 03:38:28;;;;;;;5.63;3.53;;;10.50;99.90;;;;;;10449727;28;20626;-79
2023/12/29 03:43:30;;;;;;;3.83;3.00;;;10.50;99.90;;;;;;10454551;28;20287;-79
2023/12/29 03:48:33;;;;;;;5.67;3.80;;;10.30;99.90;;;;;;10453970;28;20307;-80
2023/12/29 03:53:36;;;;;;;6.40;3.10;;;10.50;99.90;;;;;;10453574;28;20243;-79
2023/12/29 03:58:38;;;;;;;4.97;3.50;;;10.40;99.90;;;;;;10454717;28;20684;-79
2023/12/29 04:03:42;;;;;;;4.33;2.93;;;9.90;99.90;;;;;;10454668;28;20290;-79
2023/12/29 04:08:44;;;;;;;4.17;3.20;;;10.20;99.90;;;;;;10454439;28;20251;-79
2023/12/29 04:13:47;;;;;;;4.43;3.63;;;10.10;99.90;;;;;;10452849;28;20260;-79
2023/12/29 04:18:50;;;;;;;3.87;3.20;;;9.90;99.90;;;;;;10451424;28;20230;-79
2023/12/29 04:23:52;;;;;;;4.90;2.87;;;10.00;99.90;;;;;;10453446;28;20604;-79
2023/12/29 04:28:55;;;;;;;3.90;2.87;;;10.50;99.90;;;;;;10453130;28;20254;-79
2023/12/29 04:33:57;;;;;;;3.20;2.33;;;11.00;99.90;;;;;;10452525;28;20242;-79
2023/12/29 04:39:01;;;;;;;5.10;2.97;;;10.80;99.90;;;;;;10461189;28;20234;-80
2023/12/29 04:44:04;;;;;;;3.87;3.03;;;10.70;99.90;;;;;;10451694;28;20231;-80
2023/12/29 04:49:06;;;;;;;3.63;3.33;;;10.50;99.90;;;;;;10452784;28;20227;-79
2023/12/29 04:54:09;;;;;;;5.73;2.80;;;10.40;99.90;;;;;;10452587;28;20292;-79
2023/12/29 04:59:11;;;;;;;4.83;2.57;;;10.00;99.90;;;;;;10453340;28;20650;-79
2023/12/29 05:04:14;;;;;;;5.50;2.97;;;10.10;99.90;;;;;;10416501;28;20305;-79
2023/12/29 05:09:17;;;;;;;5.60;3.47;;;9.80;99.90;;;;;;10410336;28;20239;-79
2023/12/29 05:14:20;;;;;;;5.67;3.27;;;9.40;99.90;;;;;;10412601;28;20293;-79
2023/12/29 05:19:22;;;;;;;4.80;3.70;;;8.70;99.90;;;;;;10477047;28;20231;-79
2023/12/29 05:24:25;;;;;;;4.97;3.40;;;8.10;99.90;;;;;;10409726;28;20231;-79
2023/12/29 05:29:27;;;;;;;6.03;4.10;;;7.80;99.90;;;;;;10410639;28;20227;-79
2023/12/29 05:34:29;;;;;;;8.57;4.30;;;7.60;99.90;;;;;;10439767;28;20307;-79
2023/12/29 05:39:32;;;;;;;5.10;3.70;;;7.50;99.90;;;;;;10451071;28;20233;-80
2023/12/29 05:44:37;;;;;;;7.20;3.20;;;7.30;99.90;;;;;;10452523;28;20300;-79
2023/12/29 05:49:40;;;;;;;5.47;3.47;;;7.10;99.90;;;;;;10491921;28;20231;-79
2023/12/29 05:54:42;;;;;;;5.10;3.40;;;6.90;99.90;;;;;;10487269;28;20676;-79
2023/12/29 05:59:45;;;;;;;6.37;4.23;;;6.90;99.90;;;;;;10449593;28;20820;-79
2023/12/29 06:04:49;;;;;;;4.67;3.57;;;6.80;99.90;;;;;;10448600;28;20682;-80
2023/12/29 06:09:51;;;;;;;3.70;2.87;;;6.80;99.90;;;;;;10450341;28;20222;-80
2023/12/29 06:14:54;;;;;;;6.97;4.10;;;7.00;99.90;;;;;;10450799;28;20675;-79
2023/12/29 06:19:56;;;;;;;4.70;3.30;;;7.30;99.90;;;;;;10450616;28;20238;-80
2023/12/29 06:24:59;;;;;;;4.90;3.07;;;7.80;99.90;;;;;;10449832;28;20674;-80
2023/12/29 06:30:02;;;;;;;8.40;4.20;;;8.10;99.90;;;;;;10466852;28;20264;-80
2023/12/29 06:35:05;;;;;;;4.83;3.93;;;8.10;99.90;;;;;;10449297;28;20269;-79
2023/12/29 06:40:08;;;;;;;5.07;3.63;;;8.30;99.90;;;;;;10449099;28;20246;-80
2023/12/29 06:45:11;;;;;;;6.63;4.27;;;9.00;99.90;;;;;;10417907;28;20238;-80
2023/12/29 06:50:14;;;;;;;7.93;4.67;;;8.60;99.90;;;;;;10469091;28;20225;-79
2023/12/29 06:55:16;;;;;;;6.07;4.50;;;8.80;99.90;;;;;;10486866;28;20250;-79
2023/12/29 07:00:19;;;;;;;5.07;3.40;;;8.60;99.90;;;;;;10411631;28;20296;-79
2023/12/29 07:05:21;;;;;;;5.67;3.40;;;8.50;99.90;;;;;;10449689;28;21084;-79
2023/12/29 07:10:24;;;;;;;4.67;3.57;;;8.40;99.90;;;;;;10479064;28;20609;-79
2023/12/29 07:15:26;;;;;;;3.00;2.30;;;8.80;99.90;;;;;;10496813;28;20240;-80
2023/12/29 07:20:29;;;;;;;6.10;3.23;;;9.40;99.90;;;;;;10497676;28;20632;-79
2023/12/29 07:25:31;;;;;;;6.00;3.43;;;9.70;99.90;;;;;;10497968;28;20656;-80
2023/12/29 07:30:34;;;;;;;5.83;3.80;;;9.90;99.90;;;;;;10496368;28;20617;-79
2023/12/29 07:35:37;;;;;;;4.30;3.27;;;10.40;99.90;;;;;;10464929;28;20258;-79
2023/12/29 07:40:40;;;;;;;4.37;2.93;;;10.50;99.90;;;;;;10414855;28;20243;-79
2023/12/29 07:45:45;;;;;;;2.97;2.17;;;10.90;99.90;;;;;;10414939;28;20256;-80
2023/12/29 07:50:48;;;;;;;3.60;3.00;;;10.90;99.90;;;;;;10415018;28;20586;-79
2023/12/29 07:55:53;;;;;;;6.17;2.87;;;10.90;99.90;;;;;;10446115;28;20239;-79
2023/12/29 08:00:55;;;;;;;4.10;1.60;;;11.10;99.90;;;;;;10473835;28;20256;-79
2023/12/29 08:05:58;;;;;;;4.60;2.70;;;11.10;99.90;;;;;;10453993;28;20999;-79
2023/12/29 08:11:00;;;;;;;5.60;2.93;;;10.90;99.90;;;;;;10453571;28;20238;-79
2023/12/29 08:16:03;;;;;;;4.83;2.53;;;10.90;99.90;;;;;;10454549;28;20630;-79
2023/12/29 08:21:05;;;;;;;4.37;2.93;;;11.50;99.90;;;;;;10474569;28;20661;-79
2023/12/29 08:26:08;;;;;;;3.33;1.97;;;11.50;99.90;;;;;;10469159;28;20314;-79
2023/12/29 08:31:11;;;;;;;4.87;2.27;;;11.70;99.90;;;;;;10477311;28;20238;-79
2023/12/29 08:36:17;;;;;;;3.73;2.07;;;11.90;99.90;;;;;;10457920;28;20195;-79
2023/12/29 08:41:21;;;;;;;4.40;1.93;;;;;;;;;;10493558;28;20637;-79
2023/12/29 08:46:24;;;;;;;3.27;2.10;;;;;;;;;;10465895;28;20253;-79
2023/12/29 08:51:27;;;;;;;5.00;2.43;;;;;;;;;;10455355;28;20199;-79
2023/12/29 08:56:30;;;;;;;4.07;2.33;;;;;;;;;;10473356;28;20237;-78
2023/12/29 09:01:33;;;;;;;2.33;1.33;;;13.50;99.90;;;;;;10441050;28;20284;-78
2023/12/29 09:06:36;;;;;;;1.63;1.27;;;13.60;99.90;;;;;;10477122;28;20318;-79
2023/12/29 09:11:45;;;;;;;4.07;1.73;;;14.00;99.90;;;;;;10452675;28;20238;-79
2023/12/29 09:16:47;;;;;;;3.63;2.00;;;14.00;99.90;;;;;;10451914;28;20637;-78
2023/12/29 09:21:50;;;;;;;4.57;2.67;;;14.20;99.90;;;;;;10454490;28;20222;-78
2023/12/29 09:26:52;;;;;;;2.60;1.37;;;14.30;99.90;;;;;;10448205;28;20310;-78
2023/12/29 09:31:55;;;;;;;3.93;2.20;;;14.40;99.90;;;;;;10442367;28;20220;-79
2023/12/29 09:36:58;;;;;;;2.13;1.20;;;14.40;99.90;;;;;;10409582;28;20224;-78
2023/12/29 09:42:03;;;;;;;2.00;1.40;;;14.70;99.90;;;;;;10447460;28;20264;-79
2023/12/29 09:47:09;;;;;;;2.23;1.37;;;14.50;99.90;;;;;;10490959;28;20275;-78
2023/12/29 09:52:13;;;;;;;2.80;1.50;;;14.30;99.90;;;;;;10456166;28;20219;-79
2023/12/29 09:57:18;;;;;;;3.60;2.20;;;14.40;99.90;;;;;;10433927;28;20285;-78
2023/12/29 10:02:23;;;;;;;3.60;2.00;;;14.20;99.90;;;;;;10434840;28;20264;-78
2023/12/29 10:07:26;;;;;;;1.70;1.17;;;14.20;99.90;;;;;;10450334;28;20254;-79
2023/12/29 10:12:30;;;;;;;2.57;1.50;;;14.00;99.90;;;;;;10487533;28;20237;-77
2023/12/29 10:17:43;;;;;;;3.43;1.90;;;14.20;99.90;;;;;;10465374;28;20268;-78
2023/12/29 10:22:49;;;;;;;3.00;1.80;;;14.20;99.90;;;;;;10449753;28;20238;-78
2023/12/29 10:27:52;;;;;;;4.47;1.80;;;14.40;99.90;;;;;;10449401;28;20923;-78
2023/12/29 10:32:55;;;;;;;1.40;1.07;;;14.20;99.90;;;;;;10448506;28;20284;-78
2023/12/29 10:38:11;;;;;;;2.87;1.33;;;14.40;99.90;;;;;;10448442;28;20265;-78
2023/12/29 10:43:24;;;;;;;1.30;1.10;;;14.60;99.90;;;;;;10454527;28;20268;-79
2023/12/29 10:48:27;;;;;;;5.03;2.83;;;14.50;99.90;;;;;;10455814;28;20258;-78
2023/12/29 10:53:30;;;;;;;3.00;1.83;;;14.40;99.90;;;;;;10454585;28;20241;-79
2023/12/29 10:58:37;;;;;;;2.83;1.87;;;14.40;99.90;;;;;;10457174;28;20246;-78
2023/12/29 11:03:40;;;;;;;2.58;2.10;;;14.10;99.90;;;;;;10107143;28;10001332;-78
2023/12/29 11:08:43;;;;;;;3.53;2.20;;;13.80;99.90;;;;;;10462974;28;20280;-78
2023/12/29 11:13:46;;;;;;;2.60;1.30;;;14.10;99.90;;;;;;10453866;28;20227;-79
2023/12/29 11:18:51;;;;;;;2.97;1.77;;;14.10;99.90;;;;;;10412346;28;20235;-79
2023/12/29 11:23:54;;;;;;;3.27;1.80;;;14.10;99.90;;;;;;10451025;28;20613;-78
2023/12/29 11:28:56;;;;;;;2.60;1.80;;;14.30;99.90;;;;;;10452681;28;20299;-78
2023/12/29 11:34:14;;;;;;;4.37;2.27;;;14.10;99.90;;;;;;10438899;28;20231;-79
2023/12/29 11:39:18;;;;;;;2.13;1.63;;;13.40;99.90;;;;;;10411260;28;20242;-78
2023/12/29 11:44:27;;;;;;;2.20;1.47;;;13.60;99.90;;;;;;10439778;28;20235;-79
2023/12/29 11:50:00;;;;;;;3.97;2.73;;;13.40;99.90;;;;;;10444441;28;20319;-79
2023/12/29 11:55:09;;;;;;;4.53;2.47;;;13.70;99.90;;;;;;10467270;28;20234;-78
2023/12/29 12:00:12;;;;;;;4.60;3.07;;;13.80;99.90;;;;;;10454004;28;20234;-78
2023/12/29 12:05:50;;;;;;;6.13;1.97;;;13.70;99.90;;;;;;10467605;28;20229;-79
2023/12/29 12:10:53;;;;;;;4.40;2.00;;;13.50;99.90;;;;;;10476724;28;20615;-79
2023/12/29 12:15:55;;;;;;;3.20;1.80;;;13.70;99.90;;;;;;10477560;28;20280;-79
2023/12/29 12:21:00;;;;;;;4.13;2.13;;;13.60;99.90;;;;;;10464607;28;20239;-79
2023/12/29 12:26:05;;;;;;;4.07;1.70;;;13.70;99.90;;;;;;10476313;28;20261;-79
2023/12/29 12:31:08;;;;;;;2.60;1.93;;;13.50;99.90;;;;;;10479931;28;20736;-79
2023/12/29 12:36:11;;;;;;;2.27;1.20;;;13.70;99.90;;;;;;10474665;28;20226;-79
2023/12/29 12:41:14;;;;;;;3.03;2.00;;;14.00;99.90;;;;;;10453200;28;20289;-79
2023/12/29 12:46:24;;;;;;;1.27;0.77;;;13.80;99.90;;;;;;10465845;28;20311;-79
2023/12/29 12:51:26;;;;;;;4.30;2.37;;;13.50;99.90;;;;;;10451732;28;20765;-79
2023/12/29 12:56:30;;;;;;;3.57;2.33;;;13.70;99.90;;;;;;10453706;28;21048;-79
2023/12/29 13:01:37;;;;;;;7.20;2.70;;;13.40;99.90;;;;;;10489432;28;20263;-80
2023/12/29 13:06:43;;;;;;;5.50;2.37;;;13.10;99.90;;;;;;10492150;28;20721;-78
2023/12/29 13:11:47;;;;;;;6.47;3.37;;;13.00;99.90;;;;;;10492472;28;20291;-78
2023/12/29 13:16:50;;;;;;;4.20;2.73;;;12.60;99.90;;;;;;10448906;28;20632;-79
2023/12/29 13:39:41;;;;;;;2.83;1.97;;;12.80;99.90;;;;;;8913901;23;10002481;-90
2023/12/29 13:44:46;;;;;;;5.50;2.73;;;13.00;99.90;;;;;;10420036;28;20243;-90
2023/12/29 13:49:50;;;;;;;2.23;1.67;;;12.40;99.90;;;;;;10390725;23;20268;-81
2023/12/29 13:54:52;;;;;;;3.87;2.67;;;12.80;99.90;;;;;;10383993;28;20230;-82
2023/12/29 13:59:55;;;;;;;3.90;2.97;;;13.10;99.90;;;;;;10378991;28;20251;-80
2023/12/29 14:05:19;;;;;;;4.57;2.23;;;13.00;99.90;;;;;;10364191;28;20223;-81
2023/12/29 14:10:22;;;;;;;6.50;3.83;;;13.50;99.90;;;;;;10383179;28;20250;-81
2023/12/29 14:15:25;;;;;;;8.77;3.20;;;13.20;99.90;;;;;;10391363;28;20235;-81
2023/12/29 14:20:36;;;;;;;9.37;5.17;;;13.00;99.90;;;;;;10379362;28;20641;-82
2023/12/29 14:25:39;;;;;;;8.07;4.73;;;12.60;99.90;;;;;;10366580;28;20752;-81
2023/12/29 14:30:41;;;;;;;9.53;4.70;;;12.30;99.90;;;;;;10394899;28;20258;-82
2023/12/29 14:35:44;;;;;;;7.30;4.27;;;12.00;99.90;;;;;;10377466;28;20297;-81
2023/12/29 14:40:51;;;;;;;8.03;4.20;;;12.10;99.90;;;;;;10392568;28;20376;-81
2023/12/29 14:45:56;;;;;;;10.57;4.70;;;12.00;99.90;;;;;;10373114;28;20243;-82
2023/12/29 14:50:59;;;;;;;7.67;3.90;;;11.90;99.90;;;;;;10388441;28;20247;-82
2023/12/29 14:56:01;;;;;;;4.63;3.47;;;12.20;99.90;;;;;;10364696;28;20508;-82
2023/12/29 15:01:04;;;;;;;6.23;4.17;;;12.50;99.90;;;;;;10369864;28;20285;-83
2023/12/29 15:06:06;;;;;;;5.80;3.60;;;12.40;99.90;;;;;;10379627;28;20258;-84
2023/12/29 15:11:10;;;;;;;10.87;4.03;;;12.60;99.90;;;;;;10389691;28;20727;-84
2023/12/29 15:16:12;;;;;;;6.50;4.03;;;12.50;99.90;;;;;;10425218;28;20225;-82
2023/12/29 15:21:15;;;;;;;8.10;2.43;;;12.50;99.90;;;;;;10415737;28;20262;-82
2023/12/29 15:26:18;;;;;;;5.00;2.73;;;12.40;99.90;;;;;;10423170;28;20668;-83
2023/12/29 15:31:21;;;;;;;7.07;4.03;;;12.60;99.90;;;;;;10417801;28;20259;-82
2023/12/29 15:36:24;;;;;;;6.60;4.07;;;12.60;99.90;;;;;;10399126;28;20238;-82
2023/12/29 15:41:26;;;;;;;7.90;3.90;;;12.90;99.90;;;;;;10402044;28;20240;-82
2023/12/29 15:46:29;;;;;;;6.20;2.70;;;12.70;99.90;;;;;;10451641;28;20262;-81
2023/12/29 15:51:31;;;;;;;6.73;4.10;;;12.50;99.90;;;;;;10450912;28;20312;-81
2023/12/29 15:56:34;;;;;;;11.93;5.50;;;12.40;99.90;;;;;;10429460;28;20613;-82
2023/12/29 16:01:36;;;;;;;5.20;1.83;;;12.20;99.90;;;;;;10444477;28;20301;-81
2023/12/29 16:06:39;;;;;;;6.07;3.57;;;12.20;99.90;;;;;;10433025;28;20243;-82
2023/12/29 16:11:41;;;;;;;5.83;3.53;;;12.20;99.90;;;;;;10449905;28;20605;-82
2023/12/29 16:16:44;;;;;;;11.67;6.73;;;11.80;99.90;;;;;;10422800;28;21035;-82
2023/12/29 16:21:47;;;;;;;15.03;7.47;;;11.30;99.90;;;;;;10410785;28;20296;-82
2023/12/29 16:26:49;;;;;;;12.27;7.60;;;10.90;99.90;;;;;;10422067;28;20775;-82
2023/12/29 16:31:53;;;;;;;14.20;7.57;;;10.50;99.90;;;;;;10416837;28;20226;-82
2023/12/29 16:36:59;;;;;;;14.50;7.60;;;10.40;99.90;;;;;;10445222;28;20685;-83
2023/12/29 16:42:03;;;;;;;10.33;6.20;;;10.30;99.90;;;;;;10447316;28;20229;-84
2023/12/29 16:47:06;;;;;;;11.30;5.87;;;10.10;99.90;;;;;;10374775;28;1094227;-82
2023/12/29 16:52:09;;;;;;;14.20;6.90;;;10.00;99.90;;;;;;10430801;28;20293;-83
2023/12/29 16:57:11;;;;;;;11.90;6.73;;;10.20;99.90;;;;;;10393814;28;20699;-82
2023/12/29 17:02:14;;;;;;;11.30;7.43;;;10.10;99.90;;;;;;10392078;28;20262;-82
2023/12/29 17:07:16;;;;;;;10.30;6.60;;;10.10;99.90;;;;;;10415152;28;20239;-82
2023/12/29 17:12:19;;;;;;;14.37;7.13;;;9.90;99.90;;;;;;10425166;28;20242;-83
2023/12/29 17:17:21;;;;;;;12.63;8.33;;;9.80;99.90;;;;;;10451447;28;20643;-82
2023/12/29 17:22:24;;;;;;;6.77;4.30;;;9.70;99.90;;;;;;10450451;28;20230;-81
2023/12/29 17:27:27;;;;;;;15.47;7.83;;;9.70;99.90;;;;;;10381401;28;20257;-82
2023/12/29 17:32:32;;;;;;;13.83;6.90;;;9.80;99.90;;;;;;10397342;28;20227;-82
2023/12/29 17:37:34;;;;;;;9.53;6.37;;;9.70;99.90;;;;;;10449034;28;20671;-82
2023/12/29 17:42:36;;;;;;;9.53;5.63;;;9.80;99.90;;;;;;10449164;28;20606;-82
2023/12/29 17:47:42;;;;;;;10.90;6.57;;;9.80;99.90;;;;;;10408426;28;20690;-83
2023/12/29 17:52:45;;;;;;;9.37;6.13;;;9.90;99.90;;;;;;10408440;28;20688;-83
2023/12/29 17:57:47;;;;;;;8.57;4.30;;;9.80;99.90;;;;;;10431530;28;20265;-81
2023/12/29 18:02:50;;;;;;;10.77;6.17;;;10.00;99.90;;;;;;10382953;28;20250;-81
2023/12/29 18:07:52;;;;;;;6.63;4.60;;;9.90;99.90;;;;;;10426257;28;20807;-81
2023/12/29 18:12:57;;;;;;;10.53;6.33;;;10.20;99.90;;;;;;10389323;28;20285;-81
2023/12/29 18:18:00;;;;;;;10.40;5.23;;;10.70;99.90;;;;;;10412646;28;20239;-82
2023/12/29 18:23:07;;;;;;;9.03;6.93;;;11.00;99.90;;;;;;10449002;28;21006;-81
2023/12/29 18:28:10;;;;;;;10.50;5.23;;;10.40;99.90;;;;;;10450873;28;20254;-86
2023/12/29 18:33:13;;;;;;;13.07;5.73;;;10.20;99.90;;;;;;10407755;28;20204;-85
2023/12/29 18:38:16;;;;;;;6.73;3.87;;;10.90;99.90;;;;;;10417563;28;20203;-85
2023/12/29 18:43:19;;;;;;;12.30;5.37;;;11.20;99.90;;;;;;10415079;28;20608;-86
2023/12/29 18:48:21;;;;;;;12.37;5.37;;;11.60;99.90;;;;;;10393032;28;20266;-85
2023/12/29 18:53:27;;;;;;;12.00;4.10;;;11.50;99.90;;;;;;10410658;28;20226;-84
2023/12/29 18:58:29;;;;;;;8.70;5.07;;;11.30;99.90;;;;;;10391242;28;20533;-86
2023/12/29 19:03:32;;;;;;;9.87;5.40;;;11.30;99.90;;;;;;10399983;28;20180;-86
2023/12/29 19:08:34;;;;;;;8.63;5.87;;;11.20;99.90;;;;;;10427553;28;20234;-86
2023/12/29 19:13:38;;;;;;;7.50;4.97;;;10.70;99.90;;;;;;10450170;28;20210;-85
2023/12/29 19:18:40;;;;;;;13.57;6.60;;;10.60;99.90;;;;;;10450990;28;20200;-85
2023/12/29 19:23:43;;;;;;;12.27;6.77;;;10.90;99.90;;;;;;10435635;28;20187;-85
2023/12/29 19:28:46;;;;;;;17.83;7.07;;;10.70;99.90;;;;;;10466999;28;20212;-84
2023/12/29 19:33:50;;;;;;;13.70;6.43;;;10.60;99.90;;;;;;10467472;28;20180;-86
2023/12/29 19:38:53;;;;;;;8.90;4.37;;;10.60;99.90;;;;;;10420372;28;20196;-84
2023/12/29 19:43:55;;;;;;;11.97;5.67;;;10.70;99.90;;;;;;10429706;28;20183;-85
2023/12/29 19:49:01;;;;;;;6.10;4.27;;;10.80;99.90;;;;;;10437990;28;20204;-87
2023/12/29 19:54:04;;;;;;;8.90;5.73;;;10.80;99.90;;;;;;10431350;28;20235;-87
2023/12/29 19:59:07;;;;;;;10.80;5.47;;;11.00;99.90;;;;;;10438194;28;20226;-87
2023/12/29 20:04:09;;;;;;;7.67;4.17;;;11.10;99.90;;;;;;10449221;28;20190;-87
2023/12/29 20:09:12;;;;;;;8.57;5.53;;;11.00;99.90;;;;;;10433856;28;20204;-88
2023/12/29 20:14:14;;;;;;;7.93;4.90;;;10.90;99.90;;;;;;10450493;28;20188;-87
2023/12/29 20:19:17;;;;;;;9.73;6.23;;;10.60;99.90;;;;;;10459782;28;20180;-88
2023/12/29 20:24:19;;;;;;;25.20;10.27;;;10.40;99.90;;;;;;10421415;28;20202;-87
2023/12/29 20:29:24;;;;;;;19.73;9.67;;;10.00;99.90;;;;;;10471972;28;20199;-86
2023/12/29 20:34:26;;;;;;;16.37;7.93;;;9.90;99.90;;;;;;10467054;28;20179;-87
2023/12/29 20:39:29;;;;;;;13.23;7.77;;;9.70;99.90;;;;;;10448171;28;20187;-86
2023/12/29 20:44:32;;;;;;;14.07;6.80;;;9.70;99.90;;;;;;10408266;28;20215;-87
2023/12/29 20:49:34;;;;;;;15.63;8.03;;;9.60;99.90;;;;;;10424749;28;20246;-87
2023/12/29 20:54:39;;;;;;;21.30;8.27;;;9.50;99.90;;;;;;10424218;28;20212;-86
2023/12/29 20:59:41;;;;;;;29.23;12.83;;;9.40;99.90;;;;;;10434591;28;20208;-86
2023/12/29 21:04:44;;;;;;;21.17;10.40;;;9.40;99.90;;;;;;10408417;28;20642;-87
2023/12/29 21:09:48;;;;;;;9.43;5.77;;;9.30;99.90;;;;;;10433073;28;20231;-86
2023/12/29 21:14:50;;;;;;;16.53;7.40;;;9.30;99.90;;;;;;10453628;28;20210;-87
2023/12/29 21:19:53;;;;;;;10.43;6.33;;;9.50;99.90;;;;;;10454115;28;20234;-86
2023/12/29 21:24:57;;;;;;;12.73;8.23;;;9.70;99.90;;;;;;10406751;28;20208;-86
2023/12/29 21:30:00;;;;;;;8.57;5.83;;;9.80;99.90;;;;;;10393386;28;21141;-87
2023/12/29 21:35:03;;;;;;;13.50;7.33;;;9.90;99.90;;;;;;10395028;28;20199;-87
2023/12/29 21:40:09;;;;;;;9.03;5.70;;;9.90;99.90;;;;;;10392787;28;20234;-86
2023/12/29 21:45:11;;;;;;;10.80;5.57;;;10.10;99.90;;;;;;10394826;28;20208;-86
2023/12/29 21:50:14;;;;;;;7.87;4.10;;;10.20;99.90;;;;;;10406077;28;20318;-85
2023/12/29 21:55:20;;;;;;;8.47;4.83;;;10.50;99.90;;;;;;10382090;28;20558;-90
2023/12/29 22:00:23;;;;;;;8.07;5.20;;;10.90;99.90;;;;;;10375188;28;20197;-86
2023/12/29 22:05:26;;;;;;;10.70;5.43;;;10.90;99.90;;;;;;10398421;28;20578;-86
2023/12/29 22:10:29;;;;;;;8.20;5.17;;;10.90;99.90;;;;;;10395753;28;20273;-85
2023/12/29 22:15:31;;;;;;;10.13;4.87;;;11.10;99.90;;;;;;10394556;28;20196;-85
2023/12/29 22:20:34;;;;;;;8.63;4.73;;;11.20;99.90;;;;;;10415160;28;20271;-86
2023/12/29 22:25:38;;;;;;;9.00;4.73;;;11.30;99.90;;;;;;10434173;28;20199;-86
2023/12/29 22:30:40;;;;;;;8.47;4.57;;;11.40;99.90;;;;;;10386730;28;20569;-85
2023/12/29 22:35:43;;;;;;;10.13;5.67;;;11.40;99.90;;;;;;10378048;28;20659;-86
2023/12/29 22:40:46;;;;;;;6.40;3.83;;;11.40;99.90;;;;;;10396603;28;20581;-88
2023/12/29 22:45:49;;;;;;;7.63;3.90;;;11.80;99.90;;;;;;9726034;28;9999931;-83
2023/12/29 22:50:51;;;;;;;7.27;3.47;;;12.00;99.90;;;;;;10409687;28;20262;-86
2023/12/29 22:55:54;;;;;;;6.93;3.67;;;12.30;99.90;;;;;;10426446;28;20234;-85
2023/12/29 23:00:57;;;;;;;4.83;2.90;;;12.50;99.90;;;;;;10445923;28;20257;-85
2023/12/29 23:05:59;;;;;;;6.73;4.03;;;12.60;99.90;;;;;;10432855;28;20223;-86
2023/12/29 23:11:03;;;;;;;6.83;3.57;;;12.50;99.90;;;;;;10383054;28;20664;-86
2023/12/29 23:16:06;;;;;;;7.20;2.83;;;12.60;99.90;;;;;;10399832;28;20219;-86
2023/12/29 23:21:11;;;;;;;5.83;3.23;;;12.60;99.90;;;;;;10382868;28;20235;-86
2023/12/29 23:26:15;;;;;;;3.77;2.20;;;12.80;99.90;;;;;;10368692;28;20259;-85
2023/12/29 23:31:17;;;;;;;7.63;3.53;;;12.40;99.90;;;;;;10400510;28;20307;-86
2023/12/29 23:36:20;;;;;;;4.43;2.47;;;12.20;99.90;;;;;;10397727;28;20261;-87
2023/12/29 23:41:23;;;;;;;4.00;2.87;;;11.90;99.90;;;;;;10402220;28;20227;-86
2023/12/29 23:46:25;;;;;;;6.80;4.23;;;11.20;99.90;;;;;;10400727;28;20340;-85
2023/12/29 23:51:28;;;;;;;9.27;5.37;;;10.70;99.90;;;;;;10398296;28;20294;-85
2023/12/29 23:56:30;;;;;;;9.03;5.03;;;10.40;99.90;;;;;;10408283;28;20227;-86
